createdAt,value
2023-03-31T00:01:10.219Z,75.09
2023-03-31T00:06:19.018Z,75.54
2023-03-31T00:11:22.762Z,75.62
2023-03-31T00:16:25.800Z,75.57
2023-03-31T00:21:30.116Z,75.52
2023-03-31T00:26:33.957Z,75.60
2023-03-31T00:31:36.502Z,75.70
2023-03-31T00:36:47.744Z,75.59
2023-03-31T00:41:50.984Z,76.50
2023-03-31T00:47:10.729Z,78.02
2023-03-31T00:52:23.552Z,78.41
2023-03-31T00:57:28.797Z,77.90
2023-03-31T01:02:31.659Z,78.29
2023-03-31T01:07:46.292Z,78.37
2023-03-31T01:12:52.642Z,78.45
2023-03-31T01:17:57.779Z,77.91
2023-03-31T01:23:27.882Z,77.99
2023-03-31T01:28:55.013Z,77.49
2023-03-31T01:34:22.018Z,78.05
2023-03-31T01:40:02.217Z,78.58
2023-03-31T01:45:26.427Z,80.88
2023-03-31T01:50:46.992Z,77.66
2023-03-31T01:56:08.733Z,78.74
2023-03-31T02:01:31.341Z,79.88
2023-03-31T02:06:45.298Z,82.70
2023-03-31T02:11:50.182Z,83.50
2023-03-31T02:16:58.653Z,85.84
2023-03-31T02:22:04.628Z,89.42
2023-03-31T02:27:27.033Z,88.76
2023-03-31T02:32:44.366Z,92.33
2023-03-31T02:37:49.935Z,92.55
2023-03-31T02:42:52.547Z,92.91
2023-03-31T02:47:55.751Z,94.53
2023-03-31T02:53:07.767Z,93.56
2023-03-31T02:58:50.180Z,94.87
2023-03-31T03:04:13.829Z,91.39
2023-03-31T03:09:22.779Z,94.25
2023-03-31T03:14:36.425Z,94.04
2023-03-31T03:19:41.235Z,96.75
2023-03-31T03:24:43.730Z,100.00
2023-03-31T03:29:47.736Z,98.68
2023-03-31T03:34:50.441Z,99.90
2023-03-31T03:39:53.177Z,100.00
2023-03-31T03:44:55.666Z,100.00
2023-03-31T03:49:58.162Z,100.00
2023-03-31T03:55:02.103Z,99.80
2023-03-31T04:00:10.340Z,100.00
2023-03-31T04:05:13.966Z,100.00
2023-03-31T04:10:16.590Z,100.00
2023-03-31T04:15:19.041Z,100.00
2023-03-31T04:20:22.075Z,100.00
2023-03-31T04:25:24.824Z,100.00
2023-03-31T04:30:31.405Z,100.00
2023-03-31T04:35:49.800Z,100.00
2023-03-31T04:40:53.530Z,100.00
2023-03-31T04:45:56.410Z,100.00
2023-03-31T04:50:58.991Z,100.00
2023-03-31T04:56:02.213Z,100.00
2023-03-31T05:01:08.967Z,100.00
2023-03-31T05:06:11.609Z,100.00
2023-03-31T05:11:14.140Z,100.00
2023-03-31T05:16:17.616Z,100.00
2023-03-31T05:21:21.765Z,100.00
2023-03-31T05:26:25.547Z,100.00
2023-03-31T05:31:28.263Z,100.00
2023-03-31T05:36:32.600Z,100.00
2023-03-31T05:41:35.208Z,100.00
2023-03-31T05:46:37.727Z,100.00
2023-03-31T05:51:40.206Z,100.00
2023-03-31T05:56:42.797Z,100.00
2023-03-31T06:01:45.444Z,100.00
2023-03-31T06:06:50.546Z,100.00
2023-03-31T06:11:53.261Z,100.00
2023-03-31T06:16:57.731Z,100.00
2023-03-31T06:22:01.056Z,100.00
2023-03-31T06:27:04.139Z,100.00
2023-03-31T06:32:06.872Z,100.00
2023-03-31T06:37:09.453Z,100.00
2023-03-31T06:42:12.057Z,100.00
2023-03-31T06:47:16.645Z,100.00
2023-03-31T06:52:19.217Z,100.00
2023-03-31T06:57:21.888Z,100.00
2023-03-31T07:02:24.574Z,100.00
2023-03-31T07:07:27.197Z,100.00
2023-03-31T07:12:32.728Z,100.00
2023-03-31T07:17:37.791Z,100.00
2023-03-31T07:22:41.773Z,100.00
2023-03-31T07:27:44.912Z,100.00
2023-03-31T07:32:49.087Z,100.00
2023-03-31T07:37:52.528Z,100.00
2023-03-31T07:42:55.824Z,100.00
2023-03-31T07:47:58.518Z,100.00
2023-03-31T07:53:01.395Z,100.00
2023-03-31T07:58:04.123Z,100.00
2023-03-31T08:03:07.287Z,100.00
2023-03-31T08:08:09.989Z,91.56
2023-03-31T08:13:12.649Z,85.99
2023-03-31T08:18:15.871Z,84.25
2023-03-31T08:23:18.566Z,82.29
2023-03-31T08:28:21.218Z,77.21
2023-03-31T08:33:23.838Z,72.56
2023-03-31T08:38:27.562Z,67.90
2023-03-31T08:43:34.944Z,64.91
2023-03-31T08:48:45.392Z,66.15
2023-03-31T08:54:08.335Z,64.18
2023-03-31T08:59:39.273Z,57.58
2023-03-31T09:05:11.645Z,55.00
2023-03-31T09:10:20.434Z,62.94
2023-03-31T09:15:41.932Z,60.22
2023-03-31T09:20:52.645Z,54.74
2023-03-31T09:25:58.035Z,52.69
2023-03-31T09:31:04.111Z,57.30
2023-03-31T09:36:17.264Z,63.80
2023-03-31T09:41:20.808Z,66.73
2023-03-31T09:46:35.108Z,67.52
2023-03-31T09:51:41.737Z,59.23
2023-03-31T09:56:44.265Z,59.81
2023-03-31T10:01:49.916Z,52.89
2023-03-31T10:06:54.285Z,53.79
2023-03-31T10:12:08.972Z,49.40
2023-03-31T10:17:17.747Z,45.58
2023-03-31T10:22:23.049Z,44.38
2023-03-31T10:27:29.560Z,40.40
2023-03-31T10:32:41.963Z,45.39
2023-03-31T10:37:44.616Z,39.98
2023-03-31T10:42:58.421Z,45.12
2023-03-31T10:48:01.881Z,43.71
2023-03-31T10:53:16.505Z,44.06
2023-03-31T10:58:37.388Z,44.89
2023-03-31T11:04:16.341Z,46.28
2023-03-31T11:09:43.689Z,48.65
2023-03-31T11:14:54.278Z,52.83
2023-03-31T11:20:13.018Z,68.31
2023-03-31T11:25:38.343Z,95.16
2023-03-31T11:30:48.853Z,96.28
2023-03-31T11:36:14.870Z,95.36
2023-03-31T11:41:30.068Z,89.31
2023-03-31T11:47:02.378Z,92.38
2023-03-31T11:52:11.732Z,91.94
2023-03-31T11:57:42.863Z,85.72
2023-03-31T12:02:54.846Z,80.72
2023-03-31T12:08:11.613Z,60.86
2023-03-31T12:13:23.110Z,58.47
2023-03-31T12:18:29.592Z,63.72
2023-03-31T12:23:38.392Z,62.33
2023-03-31T12:28:43.129Z,60.26
2023-03-31T12:33:54.251Z,55.43
2023-03-31T12:39:13.705Z,58.04
2023-03-31T12:44:37.115Z,54.79
2023-03-31T12:50:04.594Z,56.03
2023-03-31T12:55:37.952Z,54.56
2023-03-31T13:01:15.019Z,56.26
2023-03-31T13:06:29.436Z,54.92
2023-03-31T13:11:37.945Z,55.97
2023-03-31T13:16:40.989Z,61.70
2023-03-31T13:22:01.579Z,74.33
2023-03-31T13:27:30.273Z,81.46
2023-03-31T13:32:33.231Z,85.54
2023-03-31T13:37:54.498Z,87.60
2023-03-31T13:43:15.371Z,89.34
2023-03-31T13:48:36.383Z,91.13
2023-03-31T13:53:57.890Z,96.38
2023-03-31T13:59:59.059Z,94.48
2023-03-31T14:05:31.863Z,99.23
2023-03-31T14:10:37.102Z,91.87
2023-03-31T14:16:08.786Z,68.52
2023-03-31T14:21:38.504Z,61.74
2023-03-31T14:26:53.732Z,58.09
2023-03-31T14:32:40.497Z,61.14
2023-03-31T14:37:43.736Z,64.60
2023-03-31T14:42:50.118Z,59.00
2023-03-31T14:48:16.619Z,61.92
2023-03-31T14:53:24.847Z,61.19
2023-03-31T14:58:35.171Z,60.73
2023-03-31T15:03:44.364Z,61.44
2023-03-31T15:08:47.025Z,59.70
2023-03-31T15:14:04.527Z,59.84
2023-03-31T15:19:16.436Z,65.14
2023-03-31T15:24:19.729Z,66.04
2023-03-31T15:29:38.581Z,63.42
2023-03-31T15:34:43.471Z,64.52
2023-03-31T15:39:48.290Z,63.99
2023-03-31T15:45:21.943Z,66.71
2023-03-31T15:50:25.006Z,68.67
2023-03-31T15:55:31.497Z,66.57
2023-03-31T16:01:05.239Z,68.87
2023-03-31T16:06:24.200Z,68.75
2023-03-31T16:11:56.350Z,68.92
2023-03-31T16:17:14.538Z,68.53
2023-03-31T16:22:21.894Z,68.81
2023-03-31T16:27:24.760Z,69.73
2023-03-31T16:32:27.443Z,70.35
2023-03-31T16:37:30.144Z,76.04
2023-03-31T16:42:36.003Z,80.47
2023-03-31T16:47:38.697Z,78.98
2023-03-31T16:52:41.361Z,78.42
2023-03-31T16:57:43.882Z,77.86
2023-03-31T17:02:46.575Z,79.00
2023-03-31T17:07:49.500Z,79.28
2023-03-31T17:12:52.447Z,80.96
2023-03-31T17:17:55.176Z,81.23
2023-03-31T17:22:58.728Z,79.75
2023-03-31T17:28:02.263Z,80.53
2023-03-31T17:33:05.605Z,80.23
2023-03-31T17:38:09.933Z,78.39
2023-03-31T17:43:14.178Z,78.15
2023-03-31T17:48:16.693Z,78.81
2023-03-31T17:53:19.233Z,79.46
2023-03-31T17:58:22.940Z,80.15
2023-03-31T18:03:28.945Z,80.23
2023-03-31T18:08:32.305Z,85.80
2023-03-31T18:13:36.537Z,85.21
2023-03-31T18:18:39.826Z,85.04
2023-03-31T18:23:42.435Z,82.87
2023-03-31T18:28:45.281Z,83.47
2023-03-31T18:33:48.300Z,88.45
2023-03-31T18:38:51.634Z,91.49
2023-03-31T18:43:54.363Z,90.22
2023-03-31T18:48:56.876Z,90.48
2023-03-31T18:53:59.595Z,91.73
2023-03-31T18:59:05.046Z,90.73
2023-03-31T19:04:08.969Z,91.43
2023-03-31T19:09:11.818Z,94.15
2023-03-31T19:14:14.329Z,90.71
2023-03-31T19:19:17.000Z,90.76
2023-03-31T19:24:20.109Z,89.65
2023-03-31T19:29:22.654Z,89.70
2023-03-31T19:34:25.205Z,89.35
2023-03-31T19:39:28.404Z,86.67
2023-03-31T19:44:31.352Z,87.76
2023-03-31T19:49:34.149Z,87.28
2023-03-31T19:54:37.005Z,88.77
2023-03-31T19:59:51.852Z,86.88
2023-03-31T20:04:54.392Z,86.64
2023-03-31T20:09:56.909Z,87.72
2023-03-31T20:14:59.473Z,87.93
2023-03-31T20:20:02.872Z,88.29
2023-03-31T20:25:06.700Z,87.11
2023-03-31T20:30:10.324Z,91.43
2023-03-31T20:35:13.740Z,96.56
2023-03-31T20:40:16.310Z,96.69
2023-03-31T20:45:20.764Z,96.84
2023-03-31T20:50:23.341Z,98.50
2023-03-31T20:55:25.914Z,96.86
2023-03-31T21:00:28.525Z,94.79
2023-03-31T21:05:31.582Z,94.35
2023-03-31T21:10:40.991Z,95.56
2023-03-31T21:15:50.446Z,95.33
2023-03-31T21:20:55.992Z,92.16
2023-03-31T21:26:01.636Z,91.17
2023-03-31T21:31:07.116Z,91.34
2023-03-31T21:36:12.902Z,94.47
2023-03-31T21:41:22.775Z,99.61
2023-03-31T21:46:28.231Z,100.00
2023-03-31T21:51:31.178Z,100.00
2023-03-31T21:56:34.340Z,100.00
2023-03-31T22:01:37.294Z,100.00
2023-03-31T22:06:39.906Z,100.00
2023-03-31T22:11:42.514Z,100.00
2023-03-31T22:16:45.043Z,100.00
2023-03-31T22:21:48.689Z,100.00
2023-03-31T22:27:06.917Z,100.00
2023-03-31T22:32:09.410Z,100.00
2023-03-31T22:37:11.965Z,100.00
2023-03-31T22:42:14.521Z,100.00
2023-03-31T22:47:17.705Z,100.00
2023-03-31T22:52:20.343Z,100.00
2023-03-31T22:57:22.996Z,100.00
2023-03-31T23:02:25.624Z,100.00
2023-03-31T23:07:29.492Z,100.00
2023-03-31T23:12:35.169Z,100.00
2023-03-31T23:17:37.802Z,100.00
2023-03-31T23:22:40.572Z,100.00
2023-03-31T23:27:43.093Z,100.00
2023-03-31T23:32:45.787Z,100.00
2023-03-31T23:37:48.354Z,100.00
2023-03-31T23:42:51.097Z,98.43
2023-03-31T23:47:53.664Z,99.20
2023-03-31T23:52:59.494Z,98.08
2023-03-31T23:58:02.880Z,98.26
